QAF02 VLVT-VTBD
Flight info
| Callsign | QAF02 |
|---|---|
| Flight time | 0h 54m |
| Altitude | 36000 |
| Route | CHU1B CMP W21 NOBER NAKON3A |
| Aircraft | A343/H-SDE2E3FGHIJ4J5M1RWXY/LB1D1 |
Departure
| Time | 2026-04-23 14:51 |
|---|---|
| Airport | Wattay International Airport (VLVT) |
Arrival
| Time | 2026-04-23 15:46 |
|---|---|
| Airport | Don Mueang International Airport (VTBD) |
| Time | Latitude | Longitude | Altitude | Speed | Heading |
|---|---|---|---|---|---|
| 2026-04-23 14:34 | 17.97767 | 102.56732 | 566 ft | 0 kts | 220° |
| 2026-04-23 14:37 | 17.97771 | 102.56736 | 566 ft | 2 kts | 220° |
| 2026-04-23 14:38 | 17.97785 | 102.56749 | 575 ft | 3 kts | 232° |
| 2026-04-23 14:38 | 17.97796 | 102.56767 | 566 ft | 3 kts | 251° |
| 2026-04-23 14:38 | 17.97800 | 102.56787 | 572 ft | 3 kts | 270° |
| 2026-04-23 14:38 | 17.97799 | 102.56803 | 566 ft | 1 kts | 285° |
| 2026-04-23 14:39 | 17.97798 | 102.56804 | 571 ft | 0 kts | 285° |
| 2026-04-23 14:41 | 17.97799 | 102.56803 | 566 ft | 0 kts | 291° |
| 2026-04-23 14:41 | 17.97803 | 102.56802 | 566 ft | 1 kts | 314° |
| 2026-04-23 14:41 | 17.97825 | 102.56786 | 570 ft | 7 kts | 326° |
| 2026-04-23 14:42 | 17.97882 | 102.56736 | 574 ft | 15 kts | 316° |
| 2026-04-23 14:42 | 17.97988 | 102.56628 | 576 ft | 26 kts | 316° |
| 2026-04-23 14:42 | 17.98113 | 102.56500 | 574 ft | 25 kts | 316° |
| 2026-04-23 14:42 | 17.98180 | 102.56469 | 570 ft | 2 kts | 18° |
| 2026-04-23 14:43 | 17.98185 | 102.56471 | 572 ft | 0 kts | 18° |
| 2026-04-23 14:43 | 17.98191 | 102.56474 | 572 ft | 4 kts | 21° |
| 2026-04-23 14:43 | 17.98227 | 102.56489 | 573 ft | 7 kts | 24° |
| 2026-04-23 14:44 | 17.98246 | 102.56509 | 575 ft | 2 kts | 83° |
| 2026-04-23 14:44 | 17.98235 | 102.56538 | 570 ft | 10 kts | 114° |
| 2026-04-23 14:44 | 17.98165 | 102.56618 | 576 ft | 20 kts | 136° |
| 2026-04-23 14:44 | 17.98042 | 102.56744 | 574 ft | 29 kts | 135° |
| 2026-04-23 14:45 | 17.97878 | 102.56914 | 575 ft | 36 kts | 135° |
| 2026-04-23 14:45 | 17.97687 | 102.57113 | 575 ft | 41 kts | 135° |
| 2026-04-23 14:45 | 17.97592 | 102.57238 | 572 ft | 11 kts | 96° |
| 2026-04-23 14:45 | 17.97600 | 102.57255 | 569 ft | 1 kts | 49° |
| 2026-04-23 14:46 | 17.97637 | 102.57277 | 573 ft | 12 kts | 10° |
| 2026-04-23 14:46 | 17.97769 | 102.57286 | 567 ft | 25 kts | 3° |
| 2026-04-23 14:46 | 17.97936 | 102.57252 | 570 ft | 22 kts | 316° |
| 2026-04-23 14:46 | 17.98103 | 102.57075 | 576 ft | 60 kts | 315° |
| 2026-04-23 14:47 | 17.98549 | 102.56615 | 577 ft | 118 kts | 315° |
| 2026-04-23 14:47 | 17.99254 | 102.55890 | 579 ft | 163 kts | 316° |
| 2026-04-23 14:47 | 17.99807 | 102.55322 | 798 ft | 171 kts | 316° |
| 2026-04-23 14:50 | 18.00043 | 102.55080 | 1050 ft | 165 kts | 316° |
| 2026-04-23 14:51 | 18.00147 | 102.54975 | 1159 ft | 163 kts | 316° |
| 2026-04-23 14:51 | 18.00974 | 102.54139 | 1684 ft | 164 kts | 318° |
| 2026-04-23 14:52 | 18.01850 | 102.53292 | 2115 ft | 184 kts | 316° |
| 2026-04-23 14:52 | 18.02811 | 102.52260 | 2496 ft | 210 kts | 314° |
| 2026-04-23 14:52 | 18.03868 | 102.51118 | 3018 ft | 227 kts | 314° |
| 2026-04-23 14:52 | 18.05055 | 102.49854 | 3403 ft | 256 kts | 314° |
| 2026-04-23 14:53 | 18.06341 | 102.48501 | 4158 ft | 266 kts | 315° |
| 2026-04-23 14:53 | 18.07660 | 102.47119 | 5101 ft | 269 kts | 314° |
| 2026-04-23 14:53 | 18.08990 | 102.45728 | 6081 ft | 270 kts | 314° |
| 2026-04-23 14:53 | 18.10324 | 102.44332 | 7002 ft | 272 kts | 314° |
| 2026-04-23 14:54 | 18.11679 | 102.42916 | 7881 ft | 276 kts | 314° |
| 2026-04-23 14:54 | 18.13078 | 102.41512 | 8756 ft | 281 kts | 319° |
| 2026-04-23 14:54 | 18.14799 | 102.40523 | 9650 ft | 287 kts | 343° |
| 2026-04-23 14:54 | 18.16806 | 102.40433 | 10430 ft | 297 kts | 9° |
| 2026-04-23 14:55 | 18.18670 | 102.41371 | 11123 ft | 310 kts | 39° |
| 2026-04-23 14:55 | 18.19891 | 102.43125 | 11817 ft | 318 kts | 67° |
| 2026-04-23 14:55 | 18.20274 | 102.45467 | 12262 ft | 337 kts | 94° |
| 2026-04-23 14:55 | 18.19600 | 102.47868 | 12606 ft | 353 kts | 121° |
| 2026-04-23 14:56 | 18.17950 | 102.49797 | 13128 ft | 359 kts | 147° |
| 2026-04-23 14:56 | 18.15674 | 102.50849 | 13753 ft | 360 kts | 171° |
| 2026-04-23 14:56 | 18.13187 | 102.51213 | 14371 ft | 363 kts | 175° |
| 2026-04-23 14:56 | 18.10670 | 102.51612 | 15007 ft | 368 kts | 172° |
| 2026-04-23 14:57 | 18.08142 | 102.52157 | 15663 ft | 373 kts | 169° |
| 2026-04-23 14:57 | 18.05609 | 102.52802 | 16321 ft | 377 kts | 168° |
| 2026-04-23 14:57 | 18.03056 | 102.53510 | 16982 ft | 381 kts | 167° |
| 2026-04-23 14:57 | 18.00483 | 102.54256 | 17648 ft | 385 kts | 166° |
| 2026-04-23 14:58 | 17.97916 | 102.55141 | 18280 ft | 390 kts | 162° |
| 2026-04-23 14:58 | 17.95353 | 102.56125 | 18849 ft | 394 kts | 162° |
| 2026-04-23 14:58 | 17.92775 | 102.57117 | 19410 ft | 398 kts | 162° |
| 2026-04-23 14:58 | 17.90151 | 102.58117 | 19981 ft | 402 kts | 162° |
| 2026-04-23 14:59 | 17.87518 | 102.59114 | 20548 ft | 405 kts | 162° |
| 2026-04-23 14:59 | 17.84861 | 102.60116 | 21106 ft | 408 kts | 162° |
| 2026-04-23 14:59 | 17.82168 | 102.61130 | 21655 ft | 412 kts | 162° |
| 2026-04-23 14:59 | 17.79452 | 102.62150 | 22181 ft | 415 kts | 162° |
| 2026-04-23 15:00 | 17.76724 | 102.63174 | 22711 ft | 419 kts | 162° |
| 2026-04-23 15:00 | 17.73957 | 102.64212 | 23220 ft | 422 kts | 162° |
| 2026-04-23 15:00 | 17.71177 | 102.65255 | 23689 ft | 426 kts | 162° |
| 2026-04-23 15:00 | 17.68374 | 102.66305 | 24096 ft | 430 kts | 162° |
| 2026-04-23 15:01 | 17.65553 | 102.67362 | 24507 ft | 433 kts | 162° |
| 2026-04-23 15:01 | 17.62712 | 102.68427 | 24942 ft | 436 kts | 162° |
| 2026-04-23 15:01 | 17.59889 | 102.69484 | 25349 ft | 439 kts | 162° |
| 2026-04-23 15:01 | 17.56992 | 102.70568 | 25759 ft | 443 kts | 163° |
| 2026-04-23 15:02 | 17.54089 | 102.71654 | 26178 ft | 445 kts | 163° |
| 2026-04-23 15:02 | 17.51146 | 102.72755 | 26588 ft | 449 kts | 163° |
| 2026-04-23 15:02 | 17.48199 | 102.73857 | 26987 ft | 452 kts | 163° |
| 2026-04-23 15:02 | 17.45248 | 102.74960 | 27363 ft | 455 kts | 163° |
| 2026-04-23 15:03 | 17.42236 | 102.76085 | 27745 ft | 458 kts | 163° |
| 2026-04-23 15:03 | 17.39253 | 102.77232 | 28113 ft | 461 kts | 162° |
| 2026-04-23 15:03 | 17.36150 | 102.77942 | 28484 ft | 456 kts | 180° |
| 2026-04-23 15:03 | 17.32996 | 102.77674 | 28863 ft | 451 kts | 197° |
| 2026-04-23 15:04 | 17.30071 | 102.76490 | 29159 ft | 449 kts | 213° |
| 2026-04-23 15:04 | 17.27629 | 102.74500 | 29458 ft | 446 kts | 230° |
| 2026-04-23 15:04 | 17.25857 | 102.71868 | 29821 ft | 443 kts | 246° |
| 2026-04-23 15:04 | 17.24837 | 102.68843 | 30138 ft | 442 kts | 257° |
| 2026-04-23 15:05 | 17.24021 | 102.65746 | 30434 ft | 444 kts | 254° |
| 2026-04-23 15:05 | 17.22904 | 102.62710 | 30745 ft | 448 kts | 248° |
| 2026-04-23 15:05 | 17.21512 | 102.59838 | 31050 ft | 451 kts | 241° |
| 2026-04-23 15:05 | 17.19741 | 102.57132 | 31365 ft | 455 kts | 233° |
| 2026-04-23 15:06 | 17.17657 | 102.54649 | 31657 ft | 458 kts | 229° |
| 2026-04-23 15:06 | 17.15380 | 102.52223 | 31965 ft | 460 kts | 227° |
| 2026-04-23 15:06 | 17.13106 | 102.49940 | 32282 ft | 461 kts | 226° |
| 2026-04-23 15:06 | 17.10775 | 102.47652 | 32708 ft | 460 kts | 225° |
| 2026-04-23 15:07 | 17.08433 | 102.45362 | 33095 ft | 458 kts | 225° |
| 2026-04-23 15:07 | 17.06114 | 102.43082 | 33489 ft | 457 kts | 226° |
| 2026-04-23 15:07 | 17.03816 | 102.40807 | 33855 ft | 456 kts | 226° |
| 2026-04-23 15:07 | 17.01683 | 102.38685 | 34102 ft | 456 kts | 226° |
| 2026-04-23 15:08 | 16.99417 | 102.36421 | 34294 ft | 458 kts | 226° |
| 2026-04-23 15:08 | 16.97115 | 102.34119 | 34556 ft | 458 kts | 226° |
| 2026-04-23 15:08 | 16.94828 | 102.31831 | 34871 ft | 457 kts | 226° |
| 2026-04-23 15:09 | 16.90235 | 102.27240 | 35462 ft | 456 kts | 225° |
| 2026-04-23 15:09 | 16.87944 | 102.24952 | 35724 ft | 456 kts | 225° |
| 2026-04-23 15:09 | 16.85643 | 102.22655 | 35804 ft | 456 kts | 225° |
| 2026-04-23 15:10 | 16.81890 | 102.18913 | 35813 ft | 443 kts | 225° |
| 2026-04-23 15:10 | 16.76688 | 102.13729 | 35823 ft | 441 kts | 225° |
| 2026-04-23 15:11 | 16.72275 | 102.09330 | 35827 ft | 441 kts | 225° |
| 2026-04-23 15:11 | 16.67839 | 102.04913 | 35824 ft | 442 kts | 225° |
| 2026-04-23 15:12 | 16.63395 | 102.00491 | 35834 ft | 443 kts | 225° |
| 2026-04-23 15:12 | 16.58939 | 101.96062 | 35835 ft | 443 kts | 225° |
| 2026-04-23 15:13 | 16.54498 | 101.91651 | 35836 ft | 443 kts | 225° |
| 2026-04-23 15:13 | 16.50042 | 101.87227 | 35845 ft | 443 kts | 225° |
| 2026-04-23 15:14 | 16.45620 | 101.82841 | 35864 ft | 443 kts | 225° |
| 2026-04-23 15:14 | 16.41160 | 101.78418 | 35846 ft | 443 kts | 225° |
| 2026-04-23 15:15 | 16.36702 | 101.74001 | 35837 ft | 443 kts | 225° |
| 2026-04-23 15:15 | 16.32226 | 101.69568 | 35838 ft | 445 kts | 225° |
| 2026-04-23 15:16 | 16.27763 | 101.65152 | 35837 ft | 445 kts | 225° |
| 2026-04-23 15:16 | 16.23281 | 101.60721 | 35854 ft | 444 kts | 225° |
| 2026-04-23 15:17 | 16.18827 | 101.56319 | 35832 ft | 444 kts | 225° |
| 2026-04-23 15:17 | 16.14349 | 101.51897 | 35826 ft | 444 kts | 225° |
| 2026-04-23 15:18 | 16.09862 | 101.47469 | 35826 ft | 444 kts | 225° |
| 2026-04-23 15:18 | 16.05379 | 101.43046 | 35574 ft | 451 kts | 225° |
| 2026-04-23 15:18 | 16.03079 | 101.40777 | 35339 ft | 458 kts | 225° |
| 2026-04-23 15:19 | 16.00747 | 101.38479 | 35101 ft | 460 kts | 225° |
| 2026-04-23 15:19 | 15.98423 | 101.36190 | 34867 ft | 461 kts | 225° |
| 2026-04-23 15:19 | 15.96091 | 101.33894 | 34645 ft | 462 kts | 225° |
| 2026-04-23 15:19 | 15.93756 | 101.31596 | 34409 ft | 462 kts | 225° |
| 2026-04-23 15:20 | 15.92209 | 101.30074 | 34260 ft | 463 kts | 225° |
| 2026-04-23 15:20 | 15.86733 | 101.24686 | 34146 ft | 467 kts | 225° |
| 2026-04-23 15:21 | 15.82020 | 101.20055 | 34094 ft | 465 kts | 225° |
| 2026-04-23 15:21 | 15.77324 | 101.15442 | 34057 ft | 465 kts | 225° |
| 2026-04-23 15:21 | 15.74976 | 101.13137 | 33660 ft | 464 kts | 225° |
| 2026-04-23 15:22 | 15.72618 | 101.10823 | 32757 ft | 469 kts | 225° |
| 2026-04-23 15:22 | 15.70265 | 101.08513 | 31880 ft | 474 kts | 225° |
| 2026-04-23 15:22 | 15.67852 | 101.06145 | 31119 ft | 477 kts | 225° |
| 2026-04-23 15:22 | 15.65446 | 101.03787 | 30628 ft | 473 kts | 225° |
| 2026-04-23 15:23 | 15.63075 | 101.01464 | 30119 ft | 470 kts | 225° |
| 2026-04-23 15:23 | 15.60682 | 100.99120 | 29560 ft | 467 kts | 225° |
| 2026-04-23 15:23 | 15.59128 | 100.97599 | 29195 ft | 464 kts | 225° |
| 2026-04-23 15:23 | 15.56785 | 100.95305 | 28662 ft | 460 kts | 225° |
| 2026-04-23 15:24 | 15.54467 | 100.93037 | 28137 ft | 456 kts | 224° |
| 2026-04-23 15:24 | 15.52175 | 100.90793 | 27612 ft | 453 kts | 224° |
| 2026-04-23 15:24 | 15.49883 | 100.88552 | 27093 ft | 449 kts | 225° |
| 2026-04-23 15:24 | 15.46896 | 100.85630 | 26448 ft | 444 kts | 224° |
| 2026-04-23 15:25 | 15.45378 | 100.84146 | 26080 ft | 442 kts | 224° |
| 2026-04-23 15:25 | 15.43150 | 100.81968 | 25560 ft | 440 kts | 224° |
| 2026-04-23 15:25 | 15.40927 | 100.79796 | 25028 ft | 437 kts | 224° |
| 2026-04-23 15:25 | 15.38716 | 100.77636 | 24539 ft | 434 kts | 225° |
| 2026-04-23 15:26 | 15.36537 | 100.75508 | 24033 ft | 431 kts | 224° |
| 2026-04-23 15:26 | 15.34348 | 100.73370 | 23524 ft | 429 kts | 224° |
| 2026-04-23 15:26 | 15.32188 | 100.71264 | 22974 ft | 426 kts | 225° |
| 2026-04-23 15:26 | 15.30067 | 100.69199 | 22468 ft | 422 kts | 224° |
| 2026-04-23 15:27 | 15.27722 | 100.67387 | 21912 ft | 421 kts | 210° |
| 2026-04-23 15:27 | 15.25027 | 100.66235 | 21335 ft | 421 kts | 199° |
| 2026-04-23 15:27 | 15.22206 | 100.65416 | 20808 ft | 419 kts | 195° |
| 2026-04-23 15:27 | 15.19388 | 100.64664 | 20295 ft | 417 kts | 196° |
| 2026-04-23 15:28 | 15.16582 | 100.63922 | 19758 ft | 415 kts | 196° |
| 2026-04-23 15:28 | 15.13799 | 100.63187 | 19265 ft | 413 kts | 195° |
| 2026-04-23 15:28 | 15.11003 | 100.62448 | 18745 ft | 411 kts | 195° |
| 2026-04-23 15:28 | 15.08228 | 100.61715 | 18237 ft | 410 kts | 195° |
| 2026-04-23 15:29 | 15.05482 | 100.60992 | 17682 ft | 408 kts | 195° |
| 2026-04-23 15:29 | 15.02751 | 100.60273 | 17149 ft | 405 kts | 195° |
| 2026-04-23 15:29 | 15.00028 | 100.59556 | 16643 ft | 402 kts | 195° |
| 2026-04-23 15:29 | 14.97309 | 100.58840 | 16122 ft | 399 kts | 195° |
| 2026-04-23 15:30 | 14.94634 | 100.58136 | 15632 ft | 396 kts | 195° |
| 2026-04-23 15:30 | 14.91976 | 100.57436 | 15120 ft | 394 kts | 194° |
| 2026-04-23 15:30 | 14.89316 | 100.56736 | 14630 ft | 391 kts | 194° |
| 2026-04-23 15:30 | 14.86697 | 100.56048 | 14122 ft | 389 kts | 194° |
| 2026-04-23 15:31 | 14.84088 | 100.55362 | 13615 ft | 387 kts | 194° |
| 2026-04-23 15:31 | 14.81507 | 100.54684 | 13100 ft | 384 kts | 194° |
| 2026-04-23 15:31 | 14.78898 | 100.53998 | 12839 ft | 373 kts | 194° |
| 2026-04-23 15:31 | 14.76436 | 100.53352 | 12817 ft | 357 kts | 194° |
| 2026-04-23 15:32 | 14.74100 | 100.52738 | 12941 ft | 337 kts | 194° |
| 2026-04-23 15:32 | 14.71905 | 100.52174 | 12981 ft | 323 kts | 192° |
| 2026-04-23 15:32 | 14.69711 | 100.52036 | 12987 ft | 316 kts | 172° |
| 2026-04-23 15:32 | 14.67578 | 100.52521 | 12986 ft | 314 kts | 164° |
| 2026-04-23 15:33 | 14.65459 | 100.53136 | 12990 ft | 316 kts | 163° |
| 2026-04-23 15:33 | 14.63361 | 100.53749 | 12920 ft | 309 kts | 163° |
| 2026-04-23 15:33 | 14.61288 | 100.54349 | 12302 ft | 305 kts | 163° |
| 2026-04-23 15:33 | 14.59234 | 100.54940 | 11485 ft | 308 kts | 163° |
| 2026-04-23 15:34 | 14.57175 | 100.55530 | 10789 ft | 306 kts | 163° |
| 2026-04-23 15:34 | 14.55140 | 100.56113 | 10164 ft | 302 kts | 163° |
| 2026-04-23 15:34 | 14.53131 | 100.56687 | 9509 ft | 299 kts | 163° |
| 2026-04-23 15:34 | 14.51175 | 100.57246 | 9004 ft | 290 kts | 163° |
| 2026-04-23 15:35 | 14.49241 | 100.57800 | 8675 ft | 291 kts | 164° |
| 2026-04-23 15:35 | 14.47275 | 100.58361 | 8548 ft | 292 kts | 164° |
| 2026-04-23 15:35 | 14.45358 | 100.58908 | 8322 ft | 277 kts | 165° |
| 2026-04-23 15:35 | 14.43526 | 100.59432 | 8133 ft | 269 kts | 165° |
| 2026-04-23 15:36 | 14.41747 | 100.59940 | 8006 ft | 263 kts | 165° |
| 2026-04-23 15:36 | 14.39994 | 100.60441 | 7802 ft | 259 kts | 165° |
| 2026-04-23 15:36 | 14.38267 | 100.60939 | 7611 ft | 257 kts | 165° |
| 2026-04-23 15:36 | 14.36556 | 100.61426 | 7368 ft | 255 kts | 165° |
| 2026-04-23 15:37 | 14.34844 | 100.61913 | 7125 ft | 254 kts | 165° |
| 2026-04-23 15:37 | 14.33182 | 100.62386 | 6842 ft | 251 kts | 165° |
| 2026-04-23 15:37 | 14.31529 | 100.62857 | 6487 ft | 242 kts | 165° |
| 2026-04-23 15:37 | 14.29901 | 100.63321 | 5922 ft | 241 kts | 165° |
| 2026-04-23 15:38 | 14.28329 | 100.63768 | 5567 ft | 234 kts | 165° |
| 2026-04-23 15:38 | 14.26785 | 100.64207 | 5363 ft | 236 kts | 165° |
| 2026-04-23 15:38 | 14.25206 | 100.64656 | 5263 ft | 234 kts | 165° |
| 2026-04-23 15:38 | 14.23659 | 100.65097 | 5084 ft | 234 kts | 165° |
| 2026-04-23 15:39 | 14.22090 | 100.65545 | 4894 ft | 233 kts | 165° |
| 2026-04-23 15:39 | 14.20541 | 100.65986 | 4551 ft | 231 kts | 165° |
| 2026-04-23 15:39 | 14.18996 | 100.66427 | 4217 ft | 229 kts | 165° |
| 2026-04-23 15:39 | 14.17469 | 100.66867 | 3922 ft | 226 kts | 165° |
| 2026-04-23 15:40 | 14.15966 | 100.67295 | 3704 ft | 225 kts | 165° |
| 2026-04-23 15:40 | 14.14469 | 100.67720 | 3569 ft | 219 kts | 165° |
| 2026-04-23 15:40 | 14.13013 | 100.68133 | 3381 ft | 216 kts | 165° |
| 2026-04-23 15:40 | 14.11576 | 100.68541 | 3164 ft | 214 kts | 165° |
| 2026-04-23 15:41 | 14.10143 | 100.68949 | 2929 ft | 212 kts | 166° |
| 2026-04-23 15:41 | 14.08722 | 100.69347 | 2716 ft | 210 kts | 168° |
| 2026-04-23 15:41 | 14.07319 | 100.69379 | 2619 ft | 206 kts | 193° |
| 2026-04-23 15:41 | 14.05995 | 100.68813 | 2621 ft | 206 kts | 206° |
| 2026-04-23 15:42 | 14.04754 | 100.68072 | 2587 ft | 206 kts | 207° |
| 2026-04-23 15:42 | 14.03509 | 100.67358 | 2373 ft | 204 kts | 206° |
| 2026-04-23 15:42 | 14.02283 | 100.66677 | 2127 ft | 193 kts | 206° |
| 2026-04-23 15:42 | 14.01169 | 100.66047 | 1857 ft | 176 kts | 206° |
| 2026-04-23 15:43 | 14.00156 | 100.65474 | 1635 ft | 161 kts | 206° |
| 2026-04-23 15:43 | 13.99221 | 100.64947 | 1423 ft | 149 kts | 206° |
| 2026-04-23 15:43 | 13.98346 | 100.64454 | 1259 ft | 136 kts | 206° |
| 2026-04-23 15:43 | 13.97595 | 100.64031 | 1101 ft | 127 kts | 206° |
| 2026-04-23 15:44 | 13.96824 | 100.63597 | 956 ft | 126 kts | 207° |
| 2026-04-23 15:44 | 13.96047 | 100.63160 | 797 ft | 129 kts | 206° |
| 2026-04-23 15:44 | 13.95256 | 100.62716 | 645 ft | 130 kts | 207° |
| 2026-04-23 15:44 | 13.94464 | 100.62269 | 461 ft | 128 kts | 207° |
| 2026-04-23 15:45 | 13.93718 | 100.61849 | 306 ft | 129 kts | 206° |
| 2026-04-23 15:45 | 13.92912 | 100.61403 | 118 ft | 131 kts | 206° |
| 2026-04-23 15:45 | 13.92133 | 100.60962 | 28 ft | 119 kts | 208° |
| 2026-04-23 15:45 | 13.91563 | 100.60644 | 22 ft | 68 kts | 209° |
| 2026-04-23 15:46 | 13.91304 | 100.60496 | 20 ft | 24 kts | 209° |
| 2026-04-23 15:46 | 13.91136 | 100.60350 | 21 ft | 31 kts | 233° |
| 2026-04-23 15:46 | 13.91095 | 100.60257 | 25 ft | 10 kts | 266° |
| 2026-04-23 15:46 | 13.91098 | 100.60245 | 24 ft | 1 kts | 287° |
| 2026-04-23 15:47 | 13.91102 | 100.60233 | 24 ft | 3 kts | 291° |
| 2026-04-23 15:47 | 13.91117 | 100.60220 | 25 ft | 3 kts | 332° |
| 2026-04-23 15:47 | 13.91154 | 100.60221 | 23 ft | 7 kts | 20° |
| 2026-04-23 15:47 | 13.91232 | 100.60265 | 22 ft | 18 kts | 29° |
| 2026-04-23 15:48 | 13.91357 | 100.60333 | 24 ft | 21 kts | 28° |
| 2026-04-23 15:48 | 13.91491 | 100.60410 | 22 ft | 23 kts | 29° |
| 2026-04-23 15:48 | 13.91634 | 100.60489 | 21 ft | 24 kts | 28° |
| 2026-04-23 15:48 | 13.91783 | 100.60572 | 24 ft | 25 kts | 28° |
| 2026-04-23 15:49 | 13.91939 | 100.60660 | 24 ft | 26 kts | 28° |
| 2026-04-23 15:49 | 13.92074 | 100.60707 | 27 ft | 11 kts | 339° |
| 2026-04-23 15:49 | 13.92116 | 100.60647 | 25 ft | 12 kts | 298° |
| 2026-04-23 15:49 | 13.92165 | 100.60572 | 23 ft | 13 kts | 328° |
| 2026-04-23 15:50 | 13.92245 | 100.60589 | 24 ft | 13 kts | 28° |
| 2026-04-23 15:50 | 13.92328 | 100.60631 | 24 ft | 11 kts | 9° |
| 2026-04-23 15:50 | 13.92340 | 100.60624 | 25 ft | 2 kts | 324° |
| 2026-04-23 15:50 | 13.92353 | 100.60607 | 24 ft | 4 kts | 303° |
| 2026-04-23 15:51 | 13.92368 | 100.60581 | 24 ft | 1 kts | 299° |
| 2026-04-23 15:51 | 13.92371 | 100.60575 | 24 ft | 1 kts | 299° |
| 2026-04-23 15:51 | 13.92372 | 100.60573 | 24 ft | 0 kts | 299° |